sensor_id;sensor_type;location;lat;lon;timestamp;P1;durP1;ratioP1;P2;durP2;ratioP2
38220;SDS011;24023;51.280;7.148;2022-10-31T00:00:12;9.0;;;4.7;;
38220;SDS011;24023;51.280;7.148;2022-10-31T00:05:06;9.4;;;4.6;;
38220;SDS011;24023;51.280;7.148;2022-10-31T00:10:08;9.4;;;4.6;;
38220;SDS011;24023;51.280;7.148;2022-10-31T00:15:07;8.0;;;4.4;;
38220;SDS011;24023;51.280;7.148;2022-10-31T00:20:07;8.0;;;4.4;;
38220;SDS011;24023;51.280;7.148;2022-10-31T00:25:07;8.0;;;4.4;;
38220;SDS011;24023;51.280;7.148;2022-10-31T00:30:09;7.2;;;4.1;;
38220;SDS011;24023;51.280;7.148;2022-10-31T00:35:06;7.2;;;4.1;;
38220;SDS011;24023;51.280;7.148;2022-10-31T00:40:08;7.9;;;4.3;;
38220;SDS011;24023;51.280;7.148;2022-10-31T00:45:09;7.9;;;4.3;;
38220;SDS011;24023;51.280;7.148;2022-10-31T00:50:08;9.3;;;4.4;;
38220;SDS011;24023;51.280;7.148;2022-10-31T00:55:06;6.9;;;4.2;;
38220;SDS011;24023;51.280;7.148;2022-10-31T01:00:11;6.9;;;4.2;;
38220;SDS011;24023;51.280;7.148;2022-10-31T01:05:06;9.5;;;4.7;;
38220;SDS011;24023;51.280;7.148;2022-10-31T01:10:08;9.5;;;4.7;;
38220;SDS011;24023;51.280;7.148;2022-10-31T01:15:08;9.5;;;4.7;;
38220;SDS011;24023;51.280;7.148;2022-10-31T01:20:08;9.0;;;4.8;;
38220;SDS011;24023;51.280;7.148;2022-10-31T01:25:07;9.0;;;4.8;;
38220;SDS011;24023;51.280;7.148;2022-10-31T01:30:09;8.5;;;4.4;;
38220;SDS011;24023;51.280;7.148;2022-10-31T01:35:06;8.5;;;4.4;;
38220;SDS011;24023;51.280;7.148;2022-10-31T01:40:08;8.5;;;4.4;;
38220;SDS011;24023;51.280;7.148;2022-10-31T01:45:11;9.2;;;4.2;;
38220;SDS011;24023;51.280;7.148;2022-10-31T01:50:10;9.2;;;4.2;;
38220;SDS011;24023;51.280;7.148;2022-10-31T01:55:07;7.5;;;4.3;;
38220;SDS011;24023;51.280;7.148;2022-10-31T02:00:11;7.5;;;4.3;;
38220;SDS011;24023;51.280;7.148;2022-10-31T02:05:07;9.7;;;4.7;;
38220;SDS011;24023;51.280;7.148;2022-10-31T02:10:07;9.7;;;4.7;;
38220;SDS011;24023;51.280;7.148;2022-10-31T02:15:08;7.3;;;4.1;;
38220;SDS011;24023;51.280;7.148;2022-10-31T02:20:11;7.3;;;4.1;;
38220;SDS011;24023;51.280;7.148;2022-10-31T02:25:15;7.3;;;4.1;;
38220;SDS011;24023;51.280;7.148;2022-10-31T02:30:11;7.6;;;4.3;;
38220;SDS011;24023;51.280;7.148;2022-10-31T02:35:08;7.6;;;4.3;;
38220;SDS011;24023;51.280;7.148;2022-10-31T02:40:10;7.8;;;5.2;;
38220;SDS011;24023;51.280;7.148;2022-10-31T02:45:11;7.8;;;5.2;;
38220;SDS011;24023;51.280;7.148;2022-10-31T02:50:08;9.1;;;5.6;;
38220;SDS011;24023;51.280;7.148;2022-10-31T02:55:11;9.1;;;5.6;;
38220;SDS011;24023;51.280;7.148;2022-10-31T03:00:11;9.1;;;5.6;;
38220;SDS011;24023;51.280;7.148;2022-10-31T03:05:09;6.3;;;4.6;;
38220;SDS011;24023;51.280;7.148;2022-10-31T03:10:10;6.3;;;4.6;;
38220;SDS011;24023;51.280;7.148;2022-10-31T03:15:11;8.7;;;5.7;;
38220;SDS011;24023;51.280;7.148;2022-10-31T03:20:07;8.7;;;5.7;;
38220;SDS011;24023;51.280;7.148;2022-10-31T03:25:06;8.7;;;5.7;;
38220;SDS011;24023;51.280;7.148;2022-10-31T03:30:08;8.2;;;5.2;;
38220;SDS011;24023;51.280;7.148;2022-10-31T03:35:06;8.2;;;5.2;;
38220;SDS011;24023;51.280;7.148;2022-10-31T03:40:08;6.9;;;5.3;;
38220;SDS011;24023;51.280;7.148;2022-10-31T03:45:11;9.4;;;5.8;;
38220;SDS011;24023;51.280;7.148;2022-10-31T03:50:08;9.4;;;5.8;;
38220;SDS011;24023;51.280;7.148;2022-10-31T03:55:07;9.4;;;5.8;;
38220;SDS011;24023;51.280;7.148;2022-10-31T04:00:11;8.5;;;5.5;;
38220;SDS011;24023;51.280;7.148;2022-10-31T04:05:07;10.3;;;6.0;;
38220;SDS011;24023;51.280;7.148;2022-10-31T04:10:08;10.3;;;6.0;;
38220;SDS011;24023;51.280;7.148;2022-10-31T04:15:07;7.7;;;5.0;;
38220;SDS011;24023;51.280;7.148;2022-10-31T04:20:07;7.7;;;5.0;;
38220;SDS011;24023;51.280;7.148;2022-10-31T04:25:06;7.7;;;5.0;;
38220;SDS011;24023;51.280;7.148;2022-10-31T04:30:09;8.5;;;6.1;;
38220;SDS011;24023;51.280;7.148;2022-10-31T04:35:06;11.2;;;6.2;;
38220;SDS011;24023;51.280;7.148;2022-10-31T04:40:08;11.2;;;6.2;;
38220;SDS011;24023;51.280;7.148;2022-10-31T04:45:09;11.2;;;6.2;;
38220;SDS011;24023;51.280;7.148;2022-10-31T04:50:08;12.0;;;6.6;;
38220;SDS011;24023;51.280;7.148;2022-10-31T04:55:07;9.8;;;6.5;;
38220;SDS011;24023;51.280;7.148;2022-10-31T05:00:15;9.8;;;6.5;;
38220;SDS011;24023;51.280;7.148;2022-10-31T05:05:06;12.7;;;7.4;;
38220;SDS011;24023;51.280;7.148;2022-10-31T05:10:07;12.7;;;7.4;;
38220;SDS011;24023;51.280;7.148;2022-10-31T05:15:07;12.7;;;7.4;;
38220;SDS011;24023;51.280;7.148;2022-10-31T05:20:08;12.0;;;8.0;;
38220;SDS011;24023;51.280;7.148;2022-10-31T05:25:08;15.3;;;9.2;;
38220;SDS011;24023;51.280;7.148;2022-10-31T05:30:09;15.3;;;9.2;;
38220;SDS011;24023;51.280;7.148;2022-10-31T05:35:10;13.7;;;9.4;;
38220;SDS011;24023;51.280;7.148;2022-10-31T05:40:09;13.7;;;9.4;;
38220;SDS011;24023;51.280;7.148;2022-10-31T05:45:11;13.7;;;9.4;;
38220;SDS011;24023;51.280;7.148;2022-10-31T05:50:08;13.2;;;9.2;;
38220;SDS011;24023;51.280;7.148;2022-10-31T05:55:06;13.2;;;9.2;;
38220;SDS011;24023;51.280;7.148;2022-10-31T06:00:10;14.6;;;8.6;;
38220;SDS011;24023;51.280;7.148;2022-10-31T06:05:07;12.5;;;8.5;;
38220;SDS011;24023;51.280;7.148;2022-10-31T06:10:08;12.5;;;8.5;;
38220;SDS011;24023;51.280;7.148;2022-10-31T06:15:08;14.2;;;10.0;;
38220;SDS011;24023;51.280;7.148;2022-10-31T06:20:09;14.2;;;10.0;;
38220;SDS011;24023;51.280;7.148;2022-10-31T06:25:06;16.1;;;11.1;;
38220;SDS011;24023;51.280;7.148;2022-10-31T06:30:09;16.1;;;11.1;;
38220;SDS011;24023;51.280;7.148;2022-10-31T06:35:06;16.1;;;11.1;;
38220;SDS011;24023;51.280;7.148;2022-10-31T06:40:07;14.7;;;11.3;;
38220;SDS011;24023;51.280;7.148;2022-10-31T06:45:09;16.5;;;11.3;;
38220;SDS011;24023;51.280;7.148;2022-10-31T06:50:08;16.5;;;11.3;;
38220;SDS011;24023;51.280;7.148;2022-10-31T06:55:07;19.9;;;11.3;;
38220;SDS011;24023;51.280;7.148;2022-10-31T07:00:11;19.9;;;11.3;;
38220;SDS011;24023;51.280;7.148;2022-10-31T07:05:06;19.9;;;11.3;;
38220;SDS011;24023;51.280;7.148;2022-10-31T07:10:07;19.1;;;12.6;;
38220;SDS011;24023;51.280;7.148;2022-10-31T07:15:08;19.1;;;12.6;;
38220;SDS011;24023;51.280;7.148;2022-10-31T07:20:08;17.9;;;12.4;;
38220;SDS011;24023;51.280;7.148;2022-10-31T07:25:06;17.9;;;12.4;;
38220;SDS011;24023;51.280;7.148;2022-10-31T07:30:10;17.5;;;12.1;;
38220;SDS011;24023;51.280;7.148;2022-10-31T07:35:07;17.5;;;12.1;;
38220;SDS011;24023;51.280;7.148;2022-10-31T07:40:08;17.5;;;12.1;;
38220;SDS011;24023;51.280;7.148;2022-10-31T07:45:11;24.6;;;14.1;;
38220;SDS011;24023;51.280;7.148;2022-10-31T07:50:08;24.6;;;14.1;;
38220;SDS011;24023;51.280;7.148;2022-10-31T07:55:07;22.5;;;14.5;;
38220;SDS011;24023;51.280;7.148;2022-10-31T08:00:11;22.5;;;14.5;;
38220;SDS011;24023;51.280;7.148;2022-10-31T08:05:06;22.5;;;14.5;;
38220;SDS011;24023;51.280;7.148;2022-10-31T08:10:08;23.7;;;15.8;;
38220;SDS011;24023;51.280;7.148;2022-10-31T08:15:08;23.7;;;15.8;;
38220;SDS011;24023;51.280;7.148;2022-10-31T08:20:08;24.3;;;16.9;;
38220;SDS011;24023;51.280;7.148;2022-10-31T08:25:07;24.3;;;16.9;;
38220;SDS011;24023;51.280;7.148;2022-10-31T08:30:09;25.7;;;17.2;;
38220;SDS011;24023;51.280;7.148;2022-10-31T08:35:07;25.7;;;17.2;;
38220;SDS011;24023;51.280;7.148;2022-10-31T08:40:08;25.7;;;17.2;;
38220;SDS011;24023;51.280;7.148;2022-10-31T08:45:09;25.7;;;17.5;;
38220;SDS011;24023;51.280;7.148;2022-10-31T08:50:07;25.7;;;17.5;;
38220;SDS011;24023;51.280;7.148;2022-10-31T08:55:06;24.6;;;15.4;;
38220;SDS011;24023;51.280;7.148;2022-10-31T09:00:10;24.6;;;15.4;;
38220;SDS011;24023;51.280;7.148;2022-10-31T09:05:07;24.6;;;15.4;;
38220;SDS011;24023;51.280;7.148;2022-10-31T09:10:08;23.2;;;15.0;;
38220;SDS011;24023;51.280;7.148;2022-10-31T09:15:07;23.2;;;15.0;;
38220;SDS011;24023;51.280;7.148;2022-10-31T09:20:08;22.3;;;15.0;;
38220;SDS011;24023;51.280;7.148;2022-10-31T09:25:06;22.3;;;15.0;;
38220;SDS011;24023;51.280;7.148;2022-10-31T09:30:09;21.7;;;14.5;;
38220;SDS011;24023;51.280;7.148;2022-10-31T09:35:06;21.7;;;14.5;;
38220;SDS011;24023;51.280;7.148;2022-10-31T09:40:08;21.7;;;14.5;;
38220;SDS011;24023;51.280;7.148;2022-10-31T09:45:13;19.2;;;13.1;;
38220;SDS011;24023;51.280;7.148;2022-10-31T09:50:12;19.2;;;13.1;;
38220;SDS011;24023;51.280;7.148;2022-10-31T09:55:08;21.2;;;12.8;;
38220;SDS011;24023;51.280;7.148;2022-10-31T10:00:14;21.2;;;12.8;;
38220;SDS011;24023;51.280;7.148;2022-10-31T10:05:09;19.4;;;11.5;;
38220;SDS011;24023;51.280;7.148;2022-10-31T10:10:12;19.4;;;11.5;;
38220;SDS011;24023;51.280;7.148;2022-10-31T10:15:16;17.6;;;10.0;;
38220;SDS011;24023;51.280;7.148;2022-10-31T10:20:14;17.6;;;10.0;;
38220;SDS011;24023;51.280;7.148;2022-10-31T10:25:12;19.9;;;9.6;;
38220;SDS011;24023;51.280;7.148;2022-10-31T10:30:11;19.9;;;9.6;;
38220;SDS011;24023;51.280;7.148;2022-10-31T10:35:09;13.5;;;8.5;;
38220;SDS011;24023;51.280;7.148;2022-10-31T10:40:11;13.5;;;8.5;;
38220;SDS011;24023;51.280;7.148;2022-10-31T10:50:10;14.4;;;7.4;;
38220;SDS011;24023;51.280;7.148;2022-10-31T10:55:08;10.5;;;6.8;;
38220;SDS011;24023;51.280;7.148;2022-10-31T11:00:15;10.5;;;6.8;;
38220;SDS011;24023;51.280;7.148;2022-10-31T11:05:21;10.5;;;6.8;;
38220;SDS011;24023;51.280;7.148;2022-10-31T11:10:14;11.8;;;5.8;;
38220;SDS011;24023;51.280;7.148;2022-10-31T11:15:17;11.8;;;5.8;;
38220;SDS011;24023;51.280;7.148;2022-10-31T11:20:21;13.0;;;5.5;;
38220;SDS011;24023;51.280;7.148;2022-10-31T11:25:16;9.7;;;4.6;;
38220;SDS011;24023;51.280;7.148;2022-10-31T11:30:09;9.7;;;4.6;;
38220;SDS011;24023;51.280;7.148;2022-10-31T11:35:08;9.7;;;4.6;;
38220;SDS011;24023;51.280;7.148;2022-10-31T11:40:15;10.6;;;4.0;;
38220;SDS011;24023;51.280;7.148;2022-10-31T11:45:14;7.3;;;3.3;;
38220;SDS011;24023;51.280;7.148;2022-10-31T11:50:09;7.3;;;3.3;;
38220;SDS011;24023;51.280;7.148;2022-10-31T11:55:14;9.5;;;3.2;;
38220;SDS011;24023;51.280;7.148;2022-10-31T12:00:19;9.5;;;3.2;;
38220;SDS011;24023;51.280;7.148;2022-10-31T12:05:06;9.5;;;3.2;;
38220;SDS011;24023;51.280;7.148;2022-10-31T12:10:09;8.6;;;3.0;;
38220;SDS011;24023;51.280;7.148;2022-10-31T12:15:14;8.6;;;3.0;;
38220;SDS011;24023;51.280;7.148;2022-10-31T12:20:10;8.4;;;3.0;;
38220;SDS011;24023;51.280;7.148;2022-10-31T12:25:13;8.4;;;3.0;;
38220;SDS011;24023;51.280;7.148;2022-10-31T12:30:12;8.4;;;3.0;;
38220;SDS011;24023;51.280;7.148;2022-10-31T12:35:15;7.0;;;3.1;;
38220;SDS011;24023;51.280;7.148;2022-10-31T12:40:18;7.0;;;3.1;;
38220;SDS011;24023;51.280;7.148;2022-10-31T12:45:13;9.3;;;3.0;;
38220;SDS011;24023;51.280;7.148;2022-10-31T12:50:14;9.3;;;3.0;;
38220;SDS011;24023;51.280;7.148;2022-10-31T12:55:09;6.6;;;2.8;;
38220;SDS011;24023;51.280;7.148;2022-10-31T13:00:12;6.6;;;2.8;;
38220;SDS011;24023;51.280;7.148;2022-10-31T13:05:11;9.3;;;3.7;;
38220;SDS011;24023;51.280;7.148;2022-10-31T13:10:13;9.3;;;3.7;;
38220;SDS011;24023;51.280;7.148;2022-10-31T13:15:13;9.3;;;3.7;;
38220;SDS011;24023;51.280;7.148;2022-10-31T13:20:13;9.8;;;3.2;;
38220;SDS011;24023;51.280;7.148;2022-10-31T13:25:09;9.8;;;3.2;;
38220;SDS011;24023;51.280;7.148;2022-10-31T13:30:12;9.3;;;3.5;;
38220;SDS011;24023;51.280;7.148;2022-10-31T13:35:07;9.3;;;3.5;;
38220;SDS011;24023;51.280;7.148;2022-10-31T13:40:12;8.2;;;3.7;;
38220;SDS011;24023;51.280;7.148;2022-10-31T13:45:11;8.2;;;3.7;;
38220;SDS011;24023;51.280;7.148;2022-10-31T13:50:18;8.2;;;3.7;;
38220;SDS011;24023;51.280;7.148;2022-10-31T13:55:30;7.2;;;3.1;;
38220;SDS011;24023;51.280;7.148;2022-10-31T14:00:22;7.2;;;3.1;;
38220;SDS011;24023;51.280;7.148;2022-10-31T14:05:06;6.3;;;2.9;;
38220;SDS011;24023;51.280;7.148;2022-10-31T14:10:21;6.3;;;2.9;;
38220;SDS011;24023;51.280;7.148;2022-10-31T14:15:13;6.3;;;2.9;;
38220;SDS011;24023;51.280;7.148;2022-10-31T14:20:25;6.6;;;3.1;;
38220;SDS011;24023;51.280;7.148;2022-10-31T14:25:24;6.6;;;3.1;;
38220;SDS011;24023;51.280;7.148;2022-10-31T14:30:15;6.4;;;3.1;;
38220;SDS011;24023;51.280;7.148;2022-10-31T14:35:09;8.4;;;3.5;;
38220;SDS011;24023;51.280;7.148;2022-10-31T14:40:13;8.4;;;3.5;;
38220;SDS011;24023;51.280;7.148;2022-10-31T14:45:13;8.4;;;3.5;;
38220;SDS011;24023;51.280;7.148;2022-10-31T14:50:13;9.0;;;3.2;;
38220;SDS011;24023;51.280;7.148;2022-10-31T14:55:07;9.0;;;3.2;;
38220;SDS011;24023;51.280;7.148;2022-10-31T15:00:15;9.0;;;3.3;;
38220;SDS011;24023;51.280;7.148;2022-10-31T15:05:06;9.0;;;3.3;;
38220;SDS011;24023;51.280;7.148;2022-10-31T15:10:19;9.0;;;3.3;;
38220;SDS011;24023;51.280;7.148;2022-10-31T15:15:11;12.2;;;3.4;;
38220;SDS011;24023;51.280;7.148;2022-10-31T15:20:10;12.2;;;3.4;;
38220;SDS011;24023;51.280;7.148;2022-10-31T15:25:10;8.0;;;3.1;;
38220;SDS011;24023;51.280;7.148;2022-10-31T15:30:16;8.0;;;3.1;;
38220;SDS011;24023;51.280;7.148;2022-10-31T15:35:08;8.0;;;3.1;;
38220;SDS011;24023;51.280;7.148;2022-10-31T15:40:12;9.1;;;3.0;;
38220;SDS011;24023;51.280;7.148;2022-10-31T15:45:16;6.4;;;2.6;;
38220;SDS011;24023;51.280;7.148;2022-10-31T15:50:18;6.4;;;2.6;;
38220;SDS011;24023;51.280;7.148;2022-10-31T15:55:15;6.4;;;2.6;;
38220;SDS011;24023;51.280;7.148;2022-10-31T16:00:21;7.8;;;2.6;;
38220;SDS011;24023;51.280;7.148;2022-10-31T16:05:14;7.8;;;2.6;;
38220;SDS011;24023;51.280;7.148;2022-10-31T16:10:22;6.7;;;2.2;;
38220;SDS011;24023;51.280;7.148;2022-10-31T16:15:12;6.7;;;2.2;;
38220;SDS011;24023;51.280;7.148;2022-10-31T16:20:16;5.5;;;2.6;;
38220;SDS011;24023;51.280;7.148;2022-10-31T16:25:08;5.5;;;2.6;;
38220;SDS011;24023;51.280;7.148;2022-10-31T16:30:28;5.5;;;2.6;;
38220;SDS011;24023;51.280;7.148;2022-10-31T16:35:24;6.3;;;2.4;;
38220;SDS011;24023;51.280;7.148;2022-10-31T16:40:09;6.3;;;2.4;;
38220;SDS011;24023;51.280;7.148;2022-10-31T16:45:13;6.1;;;2.5;;
38220;SDS011;24023;51.280;7.148;2022-10-31T16:50:12;6.1;;;2.5;;
38220;SDS011;24023;51.280;7.148;2022-10-31T16:55:09;6.1;;;2.5;;
38220;SDS011;24023;51.280;7.148;2022-10-31T17:00:13;4.8;;;2.5;;
38220;SDS011;24023;51.280;7.148;2022-10-31T17:05:08;9.4;;;2.9;;
38220;SDS011;24023;51.280;7.148;2022-10-31T17:10:08;9.4;;;2.9;;
38220;SDS011;24023;51.280;7.148;2022-10-31T17:15:09;7.6;;;2.7;;
38220;SDS011;24023;51.280;7.148;2022-10-31T17:20:10;7.6;;;2.7;;
38220;SDS011;24023;51.280;7.148;2022-10-31T17:25:07;7.6;;;2.7;;
38220;SDS011;24023;51.280;7.148;2022-10-31T17:30:10;6.1;;;2.3;;
38220;SDS011;24023;51.280;7.148;2022-10-31T17:35:07;8.4;;;2.5;;
38220;SDS011;24023;51.280;7.148;2022-10-31T17:40:09;8.4;;;2.5;;
38220;SDS011;24023;51.280;7.148;2022-10-31T17:45:12;8.4;;;2.5;;
38220;SDS011;24023;51.280;7.148;2022-10-31T17:50:08;7.9;;;2.5;;
38220;SDS011;24023;51.280;7.148;2022-10-31T17:55:06;5.7;;;2.4;;
38220;SDS011;24023;51.280;7.148;2022-10-31T18:00:12;5.7;;;2.4;;
38220;SDS011;24023;51.280;7.148;2022-10-31T18:05:06;7.4;;;2.8;;
38220;SDS011;24023;51.280;7.148;2022-10-31T18:10:08;7.4;;;2.8;;
38220;SDS011;24023;51.280;7.148;2022-10-31T18:15:08;5.2;;;2.2;;
38220;SDS011;24023;51.280;7.148;2022-10-31T18:20:08;5.2;;;2.2;;
38220;SDS011;24023;51.280;7.148;2022-10-31T18:25:07;5.2;;;2.2;;
38220;SDS011;24023;51.280;7.148;2022-10-31T18:30:10;6.7;;;3.4;;
38220;SDS011;24023;51.280;7.148;2022-10-31T18:35:07;6.7;;;3.4;;
38220;SDS011;24023;51.280;7.148;2022-10-31T18:40:08;5.5;;;2.4;;
38220;SDS011;24023;51.280;7.148;2022-10-31T18:45:09;5.5;;;2.4;;
38220;SDS011;24023;51.280;7.148;2022-10-31T18:50:08;5.5;;;2.4;;
38220;SDS011;24023;51.280;7.148;2022-10-31T18:55:07;6.5;;;2.6;;
38220;SDS011;24023;51.280;7.148;2022-10-31T19:00:11;6.5;;;2.6;;
38220;SDS011;24023;51.280;7.148;2022-10-31T19:05:06;6.2;;;2.1;;
38220;SDS011;24023;51.280;7.148;2022-10-31T19:10:08;6.2;;;2.1;;
38220;SDS011;24023;51.280;7.148;2022-10-31T19:15:07;9.0;;;2.8;;
38220;SDS011;24023;51.280;7.148;2022-10-31T19:20:08;9.0;;;2.8;;
38220;SDS011;24023;51.280;7.148;2022-10-31T19:25:07;6.9;;;2.1;;
38220;SDS011;24023;51.280;7.148;2022-10-31T19:30:09;6.9;;;2.1;;
38220;SDS011;24023;51.280;7.148;2022-10-31T19:35:08;6.9;;;2.1;;
38220;SDS011;24023;51.280;7.148;2022-10-31T19:40:08;5.7;;;2.5;;
38220;SDS011;24023;51.280;7.148;2022-10-31T19:45:11;7.9;;;3.0;;
38220;SDS011;24023;51.280;7.148;2022-10-31T19:50:08;7.9;;;3.0;;
38220;SDS011;24023;51.280;7.148;2022-10-31T19:55:06;7.9;;;3.0;;
38220;SDS011;24023;51.280;7.148;2022-10-31T20:00:12;7.5;;;2.6;;
38220;SDS011;24023;51.280;7.148;2022-10-31T20:05:07;5.6;;;2.1;;
38220;SDS011;24023;51.280;7.148;2022-10-31T20:10:08;5.6;;;2.1;;
38220;SDS011;24023;51.280;7.148;2022-10-31T20:15:07;5.6;;;2.1;;
38220;SDS011;24023;51.280;7.148;2022-10-31T20:20:08;6.4;;;2.2;;
38220;SDS011;24023;51.280;7.148;2022-10-31T20:25:07;6.4;;;2.2;;
38220;SDS011;24023;51.280;7.148;2022-10-31T20:30:09;6.9;;;2.4;;
38220;SDS011;24023;51.280;7.148;2022-10-31T20:35:06;5.0;;;2.4;;
38220;SDS011;24023;51.280;7.148;2022-10-31T20:40:08;5.0;;;2.4;;
38220;SDS011;24023;51.280;7.148;2022-10-31T20:45:09;5.0;;;2.4;;
38220;SDS011;24023;51.280;7.148;2022-10-31T20:50:08;5.8;;;2.4;;
38220;SDS011;24023;51.280;7.148;2022-10-31T20:55:07;8.2;;;2.6;;
38220;SDS011;24023;51.280;7.148;2022-10-31T21:00:11;8.2;;;2.6;;
38220;SDS011;24023;51.280;7.148;2022-10-31T21:05:08;8.2;;;2.6;;
38220;SDS011;24023;51.280;7.148;2022-10-31T21:10:13;6.9;;;3.1;;
38220;SDS011;24023;51.280;7.148;2022-10-31T21:15:08;6.9;;;3.1;;
38220;SDS011;24023;51.280;7.148;2022-10-31T21:20:09;7.4;;;2.4;;
38220;SDS011;24023;51.280;7.148;2022-10-31T21:25:07;5.6;;;2.6;;
38220;SDS011;24023;51.280;7.148;2022-10-31T21:30:09;5.6;;;2.6;;
38220;SDS011;24023;51.280;7.148;2022-10-31T21:35:07;5.6;;;2.6;;
38220;SDS011;24023;51.280;7.148;2022-10-31T21:40:08;5.9;;;2.7;;
38220;SDS011;24023;51.280;7.148;2022-10-31T21:45:10;5.9;;;2.7;;
38220;SDS011;24023;51.280;7.148;2022-10-31T21:50:08;6.1;;;2.8;;
38220;SDS011;24023;51.280;7.148;2022-10-31T21:55:07;9.1;;;2.9;;
38220;SDS011;24023;51.280;7.148;2022-10-31T22:00:11;9.1;;;2.9;;
38220;SDS011;24023;51.280;7.148;2022-10-31T22:05:08;5.0;;;2.6;;
38220;SDS011;24023;51.280;7.148;2022-10-31T22:10:08;5.0;;;2.6;;
38220;SDS011;24023;51.280;7.148;2022-10-31T22:15:07;5.0;;;2.6;;
38220;SDS011;24023;51.280;7.148;2022-10-31T22:20:08;6.3;;;2.6;;
38220;SDS011;24023;51.280;7.148;2022-10-31T22:25:07;7.9;;;3.0;;
38220;SDS011;24023;51.280;7.148;2022-10-31T22:30:09;7.9;;;3.0;;
38220;SDS011;24023;51.280;7.148;2022-10-31T22:35:06;4.0;;;2.1;;
38220;SDS011;24023;51.280;7.148;2022-10-31T22:40:08;4.0;;;2.1;;
38220;SDS011;24023;51.280;7.148;2022-10-31T22:45:10;4.0;;;2.1;;
38220;SDS011;24023;51.280;7.148;2022-10-31T22:50:07;5.4;;;2.5;;
38220;SDS011;24023;51.280;7.148;2022-10-31T22:55:06;7.4;;;2.7;;
38220;SDS011;24023;51.280;7.148;2022-10-31T23:00:21;7.4;;;2.7;;
38220;SDS011;24023;51.280;7.148;2022-10-31T23:05:07;5.5;;;2.2;;
38220;SDS011;24023;51.280;7.148;2022-10-31T23:10:08;5.5;;;2.2;;
38220;SDS011;24023;51.280;7.148;2022-10-31T23:15:08;5.5;;;2.2;;
38220;SDS011;24023;51.280;7.148;2022-10-31T23:20:09;5.4;;;2.7;;
38220;SDS011;24023;51.280;7.148;2022-10-31T23:25:07;7.4;;;2.9;;
38220;SDS011;24023;51.280;7.148;2022-10-31T23:30:09;7.4;;;2.9;;
38220;SDS011;24023;51.280;7.148;2022-10-31T23:35:06;7.4;;;2.9;;
38220;SDS011;24023;51.280;7.148;2022-10-31T23:40:08;5.9;;;2.7;;
38220;SDS011;24023;51.280;7.148;2022-10-31T23:45:10;8.5;;;2.7;;
38220;SDS011;24023;51.280;7.148;2022-10-31T23:50:07;8.5;;;2.7;;
38220;SDS011;24023;51.280;7.148;2022-10-31T23:55:07;8.5;;;2.7;;
